createdAt,value
2023-01-01T00:08:05.750Z,70.3
2023-01-01T00:23:15.479Z,70.1
2023-01-01T00:38:25.429Z,69.2
2023-01-01T00:53:35.985Z,69.1
2023-01-01T01:08:45.900Z,69
2023-01-01T01:23:55.737Z,68.2
2023-01-01T01:39:05.900Z,68.2
2023-01-01T01:54:15.487Z,68.1
2023-01-01T02:09:25.130Z,67.6
2023-01-01T02:24:34.418Z,68
2023-01-01T02:39:43.957Z,67.4
2023-01-01T02:54:53.024Z,67.5
2023-01-01T03:10:02.506Z,67.3
2023-01-01T03:25:12.236Z,66.2
2023-01-01T03:40:22.103Z,65.7
2023-01-01T03:55:31.717Z,65.5
2023-01-01T04:10:41.334Z,65.1
2023-01-01T04:25:50.432Z,64.6
2023-01-01T04:40:59.844Z,64.6
2023-01-01T04:56:09.659Z,64.6
2023-01-01T05:11:19.601Z,64.6
2023-01-01T05:26:28.925Z,64.5
2023-01-01T05:41:39.320Z,64.4
2023-01-01T05:56:49.118Z,64.3
2023-01-01T06:11:58.790Z,64
2023-01-01T06:27:10.743Z,63.7
2023-01-01T06:42:20.475Z,64
2023-01-01T06:57:29.884Z,64.1
2023-01-01T07:12:39.594Z,64.5
2023-01-01T07:27:49.299Z,64.5
2023-01-01T07:42:58.920Z,64.1
2023-01-01T07:58:08.138Z,64.4
2023-01-01T08:13:17.966Z,64.7
2023-01-01T08:28:28.311Z,64.8
2023-01-01T08:43:37.877Z,64.9
2023-01-01T08:58:47.608Z,65.1
2023-01-01T09:13:56.783Z,65.4
2023-01-01T09:29:05.706Z,66
2023-01-01T09:44:15.226Z,66.5
2023-01-01T09:59:24.322Z,67.2
2023-01-01T10:14:33.636Z,67.8
2023-01-01T10:29:42.670Z,69.2
2023-01-01T10:44:51.920Z,70.4
2023-01-01T11:00:01.492Z,70.8
2023-01-01T11:15:11.160Z,71.5
2023-01-01T11:30:20.671Z,72.5
2023-01-01T11:45:38.672Z,73.2
2023-01-01T12:00:48.499Z,73.5
2023-01-01T12:15:58.481Z,74.3
2023-01-01T12:31:08.602Z,74.5
2023-01-01T12:46:42.065Z,75.1
2023-01-01T13:01:52.573Z,75.8
2023-01-01T13:17:02.371Z,75.2
2023-01-01T13:32:11.956Z,75.6
2023-01-01T13:47:22.209Z,75.3
2023-01-01T14:02:32.783Z,75.3
2023-01-01T14:17:42.803Z,75.4
2023-01-01T14:32:52.339Z,75.7
2023-01-01T14:48:01.783Z,76
2023-01-01T15:03:12.325Z,76.1
2023-01-01T15:18:22.040Z,76.2
2023-01-01T15:33:31.597Z,76.3
2023-01-01T15:48:41.680Z,76.5
2023-01-01T16:03:50.982Z,76.6
2023-01-01T16:19:00.798Z,76.6
2023-01-01T16:34:10.933Z,76.7
2023-01-01T16:49:20.986Z,76.6
2023-01-01T17:04:30.287Z,76.5
2023-01-01T17:19:40.529Z,76.4
2023-01-01T17:34:50.185Z,76.3
2023-01-01T17:50:00.613Z,76.2
2023-01-01T18:05:12.585Z,76.1
2023-01-01T18:20:22.224Z,76.1
2023-01-01T18:35:32.133Z,76.1
2023-01-01T18:50:41.164Z,76.2
2023-01-01T19:05:50.885Z,76.1
2023-01-01T19:21:00.813Z,76
2023-01-01T19:36:11.203Z,76.3
2023-01-01T19:51:20.673Z,76.5
2023-01-01T20:06:30.114Z,76.7
2023-01-01T20:21:39.848Z,76.8
2023-01-01T20:36:50.879Z,76.9
2023-01-01T20:52:00.832Z,77.1
2023-01-01T21:07:12.285Z,77.3
2023-01-01T21:22:22.042Z,77.6
2023-01-01T21:37:32.048Z,77.7
2023-01-01T21:52:48.159Z,77.8
2023-01-01T22:07:59.853Z,77.9
2023-01-01T22:23:11.375Z,77.9
2023-01-01T22:38:21.015Z,78.1
2023-01-01T22:53:30.999Z,78.2
2023-01-01T23:08:40.790Z,78.3
2023-01-01T23:23:50.222Z,78.5
2023-01-01T23:39:01.260Z,78.6
2023-01-01T23:54:10.922Z,78.7
